Time;durP1;ratioP1;P1;durP2;ratioP2;P2;SDS_P1;SDS_P2;PMS_P1;PMS_P2;Temp;Humidity;BMP_temperature;BMP_pressure;BME280_temperature;BME280_humidity;BME280_pressure;Samples;Min_cycle;Max_cycle;Signal;HPM_P1;HPM_P2
2024/02/21 00:00:07;;;;;;;7.30;3.70;;;5.30;99.90;;;;;;5036714;28;20410;-82
2024/02/21 00:02:33;;;;;;;3.63;2.83;;;5.30;99.90;;;;;;5019898;28;20470;-82
2024/02/21 00:04:58;;;;;;;9.27;3.33;;;5.30;99.90;;;;;;5024399;28;20459;-82
2024/02/21 00:07:24;;;;;;;4.85;2.97;;;5.30;99.90;;;;;;5033615;28;20392;-79
2024/02/21 00:09:49;;;;;;;5.63;3.08;;;5.20;99.90;;;;;;5032969;28;20457;-82
2024/02/21 00:12:15;;;;;;;6.10;2.60;;;5.00;99.90;;;;;;5038563;28;20415;-80
2024/02/21 00:14:40;;;;;;;5.67;2.97;;;5.20;99.90;;;;;;5057334;28;20441;-81
2024/02/21 00:17:08;;;;;;;3.37;3.00;;;5.10;99.90;;;;;;5034355;28;20414;-83
2024/02/21 00:19:34;;;;;;;5.10;2.70;;;5.30;99.90;;;;;;5030494;28;20399;-83
2024/02/21 00:21:59;;;;;;;3.55;2.90;;;5.00;99.90;;;;;;5032036;28;20399;-83
2024/02/21 00:24:25;;;;;;;4.30;3.30;;;5.20;99.90;;;;;;5032315;28;20388;-82
2024/02/21 00:26:50;;;;;;;5.22;2.90;;;5.30;99.90;;;;;;5045870;28;20399;-81
2024/02/21 00:29:16;;;;;;;5.88;3.33;;;5.30;99.90;;;;;;5047066;28;20398;-81
2024/02/21 00:31:41;;;;;;;4.20;3.20;;;5.50;99.90;;;;;;5046231;28;20395;-81
2024/02/21 00:34:07;;;;;;;6.60;3.20;;;5.40;99.90;;;;;;5046494;28;20427;-81
2024/02/21 00:36:33;;;;;;;4.90;3.00;;;5.00;99.90;;;;;;5048981;28;20402;-81
2024/02/21 00:38:58;;;;;;;4.67;3.10;;;5.30;99.90;;;;;;5051678;28;20763;-82
2024/02/21 00:41:24;;;;;;;4.07;2.70;;;5.30;99.90;;;;;;5024073;28;20404;-81
2024/02/21 00:43:50;;;;;;;4.00;2.77;;;5.40;99.90;;;;;;5037972;28;20386;-81
2024/02/21 00:46:15;;;;;;;5.75;3.10;;;5.40;99.90;;;;;;5033159;28;20400;-81
2024/02/21 00:48:41;;;;;;;6.93;3.03;;;5.50;99.90;;;;;;5014059;28;20388;-81
2024/02/21 00:51:07;;;;;;;6.17;3.00;;;5.10;99.90;;;;;;5030249;28;20879;-82
2024/02/21 00:53:32;;;;;;;4.13;2.73;;;5.20;99.90;;;;;;5048207;28;20415;-82
2024/02/21 00:55:58;;;;;;;4.40;3.20;;;5.30;99.90;;;;;;5047108;28;20433;-83
2024/02/21 00:58:23;;;;;;;4.40;3.40;;;5.40;99.90;;;;;;5049149;28;20470;-82
2024/02/21 01:00:49;;;;;;;3.40;2.90;;;5.40;99.90;;;;;;5026658;28;20403;-82
2024/02/21 01:03:14;;;;;;;4.57;2.80;;;5.30;99.90;;;;;;5022470;28;20400;-82
2024/02/21 01:05:40;;;;;;;7.22;3.00;;;4.80;99.90;;;;;;5026858;28;20388;-81
2024/02/21 01:08:05;;;;;;;3.30;2.43;;;5.10;99.90;;;;;;5053291;28;20398;-81
2024/02/21 01:10:31;;;;;;;3.97;3.00;;;5.70;99.90;;;;;;5031683;28;20423;-81
2024/02/21 01:12:57;;;;;;;5.53;3.00;;;5.40;99.90;;;;;;5041827;28;20407;-82
2024/02/21 01:15:22;;;;;;;7.30;2.70;;;5.30;99.90;;;;;;5039177;28;20395;-82
2024/02/21 01:17:49;;;;;;;6.10;2.97;;;5.60;99.90;;;;;;5041603;28;20409;-82
2024/02/21 01:20:15;;;;;;;4.00;2.95;;;5.30;99.90;;;;;;5053048;28;20371;-81
2024/02/21 01:22:40;;;;;;;4.40;2.70;;;5.50;99.90;;;;;;5029455;28;20418;-82
2024/02/21 01:25:06;;;;;;;6.37;3.10;;;6.10;99.90;;;;;;5025439;28;20389;-81
2024/02/21 01:27:32;;;;;;;5.57;2.70;;;5.10;99.90;;;;;;5023683;28;20533;-82
2024/02/21 01:29:57;;;;;;;4.35;2.50;;;5.20;99.90;;;;;;5044297;28;20744;-82
2024/02/21 01:32:24;;;;;;;5.20;2.70;;;5.30;99.90;;;;;;5024989;28;20449;-82
2024/02/21 01:34:50;;;;;;;4.95;3.00;;;7.60;99.90;;;;;;5044173;28;20406;-81
2024/02/21 01:37:15;;;;;;;4.90;2.47;;;5.40;99.90;;;;;;5045462;28;20397;-81
2024/02/21 01:39:41;;;;;;;3.37;2.60;;;5.30;99.90;;;;;;5026076;28;20413;-83
2024/02/21 01:42:06;;;;;;;5.83;3.10;;;5.30;99.90;;;;;;5043698;28;20407;-83
2024/02/21 01:44:32;;;;;;;3.70;2.60;;;5.30;99.90;;;;;;5045151;28;20767;-83
2024/02/21 01:46:58;;;;;;;4.90;2.47;;;5.50;99.90;;;;;;5025828;28;20425;-82
2024/02/21 01:49:24;;;;;;;5.90;3.08;;;5.40;99.90;;;;;;5044471;28;20391;-83
2024/02/21 01:51:49;;;;;;;4.97;2.65;;;5.20;99.90;;;;;;5026991;28;20483;-83
2024/02/21 01:54:18;;;;;;;4.63;2.90;;;5.50;99.90;;;;;;5044742;28;20826;-83
2024/02/21 01:56:44;;;;;;;7.15;3.40;;;5.40;99.90;;;;;;5045608;28;20390;-83
2024/02/21 01:59:11;;;;;;;5.68;3.10;;;4.90;99.90;;;;;;5047444;28;20403;-82
2024/02/21 02:01:37;;;;;;;5.35;3.15;;;5.10;99.90;;;;;;5029255;28;20426;-82
2024/02/21 02:04:05;;;;;;;3.90;2.70;;;5.00;99.90;;;;;;5027487;28;20450;-83
2024/02/21 02:06:30;;;;;;;3.35;2.50;;;5.40;99.90;;;;;;5045564;28;20775;-83
2024/02/21 02:08:57;;;;;;;4.57;2.77;;;5.30;99.90;;;;;;5045957;28;20431;-82
2024/02/21 02:11:22;;;;;;;4.28;2.60;;;5.30;99.90;;;;;;5025283;28;20429;-82
2024/02/21 02:13:48;;;;;;;6.10;2.88;;;5.10;99.90;;;;;;5027247;28;20403;-83
2024/02/21 02:16:13;;;;;;;5.60;3.00;;;5.40;99.90;;;;;;5043620;28;20431;-82
2024/02/21 02:18:39;;;;;;;6.15;3.00;;;5.30;99.90;;;;;;5044317;28;20398;-82
2024/02/21 02:21:14;;;;;;;6.03;2.63;;;5.40;99.90;;;;;;5023759;28;20399;-82
2024/02/21 02:23:41;;;;;;;3.22;2.53;;;5.40;99.90;;;;;;5023993;28;20395;-82
2024/02/21 02:26:07;;;;;;;4.73;2.87;;;5.40;99.90;;;;;;5035800;28;20399;-81
2024/02/21 02:28:33;;;;;;;4.03;2.70;;;5.40;99.90;;;;;;5043165;28;20450;-81
2024/02/21 02:30:58;;;;;;;3.20;2.70;;;5.40;99.90;;;;;;5026860;28;20391;-81
2024/02/21 02:33:24;;;;;;;5.63;3.23;;;5.50;99.90;;;;;;5046871;28;20441;-82
2024/02/21 02:35:49;;;;;;;4.50;2.70;;;5.30;99.90;;;;;;5027364;28;20399;-82
2024/02/21 02:38:15;;;;;;;4.17;2.43;;;5.50;99.90;;;;;;5028255;28;20883;-81
2024/02/21 02:40:41;;;;;;;4.50;2.90;;;5.30;99.90;;;;;;5044124;28;20390;-82
2024/02/21 02:43:07;;;;;;;7.70;2.80;;;5.30;99.90;;;;;;5026399;28;20398;-82
2024/02/21 02:45:32;;;;;;;3.40;2.50;;;5.50;99.90;;;;;;5048301;28;20383;-82
2024/02/21 02:47:59;;;;;;;4.03;2.50;;;5.60;99.90;;;;;;5028751;28;20403;-82
2024/02/21 02:50:25;;;;;;;5.85;2.80;;;5.30;99.90;;;;;;5045156;28;20403;-82
2024/02/21 02:52:51;;;;;;;3.40;2.47;;;5.60;99.90;;;;;;5026767;28;20422;-81
2024/02/21 02:55:18;;;;;;;6.00;2.90;;;5.50;99.90;;;;;;5044474;28;20446;-81
2024/02/21 02:57:44;;;;;;;3.27;2.93;;;5.50;99.90;;;;;;5045116;28;20422;-81
2024/02/21 03:00:14;;;;;;;3.70;2.70;;;5.60;99.90;;;;;;5046972;28;20414;-80
2024/02/21 03:02:41;;;;;;;4.90;2.90;;;5.70;99.90;;;;;;5049316;28;20394;-80
2024/02/21 03:05:15;;;;;;;5.25;2.80;;;5.60;99.90;;;;;;5044795;28;20398;-81
2024/02/21 03:07:41;;;;;;;4.23;2.90;;;5.60;99.90;;;;;;5026292;28;20854;-82
2024/02/21 03:10:07;;;;;;;5.03;2.78;;;5.30;99.90;;;;;;5024976;28;20403;-81
2024/02/21 03:12:32;;;;;;;5.57;2.40;;;5.50;99.90;;;;;;5044544;28;20391;-81
2024/02/21 03:14:58;;;;;;;3.70;2.60;;;5.70;99.90;;;;;;5043119;28;20779;-81
2024/02/21 03:17:25;;;;;;;4.77;2.60;;;5.50;99.90;;;;;;5025325;28;20455;-81
2024/02/21 03:19:50;;;;;;;3.10;2.70;;;5.50;99.90;;;;;;5027068;28;20391;-81
2024/02/21 03:22:16;;;;;;;8.32;2.60;;;5.60;99.90;;;;;;5047789;28;20771;-80
2024/02/21 03:24:42;;;;;;;5.07;3.20;;;5.60;99.90;;;;;;5031655;28;20391;-79
2024/02/21 03:27:08;;;;;;;4.90;2.70;;;5.20;99.90;;;;;;5041134;28;20422;-80
2024/02/21 03:29:33;;;;;;;5.70;2.30;;;5.40;99.90;;;;;;5047139;28;20383;-81
2024/02/21 03:31:59;;;;;;;4.87;2.73;;;5.60;99.90;;;;;;5043852;28;20394;-82
2024/02/21 03:34:25;;;;;;;4.90;2.43;;;5.50;99.90;;;;;;5045238;28;20415;-82
2024/02/21 03:36:50;;;;;;;3.97;2.30;;;5.00;99.90;;;;;;5047333;28;20486;-81
2024/02/21 03:39:16;;;;;;;3.97;2.37;;;5.40;99.90;;;;;;5046652;28;20391;-81
2024/02/21 03:41:41;;;;;;;7.80;2.80;;;5.40;99.90;;;;;;5045391;28;20479;-82
2024/02/21 03:44:07;;;;;;;2.75;2.50;;;5.50;99.90;;;;;;5030254;28;20395;-82
2024/02/21 03:46:32;;;;;;;5.03;2.30;;;5.30;99.90;;;;;;5048603;28;20391;-81
2024/02/21 03:48:58;;;;;;;4.40;2.40;;;5.00;99.90;;;;;;5050624;28;20402;-81
2024/02/21 03:51:24;;;;;;;5.07;2.30;;;5.40;99.90;;;;;;5030489;28;20391;-82
2024/02/21 03:53:49;;;;;;;5.32;2.35;;;5.30;99.90;;;;;;5030095;28;20403;-82
2024/02/21 03:56:15;;;;;;;4.97;2.93;;;5.00;99.90;;;;;;5035508;28;20435;-80
2024/02/21 03:58:40;;;;;;;3.20;2.90;;;5.20;99.90;;;;;;5054831;28;20398;-81
2024/02/21 04:01:06;;;;;;;7.10;2.70;;;5.30;99.90;;;;;;5047883;28;20394;-81
2024/02/21 04:03:31;;;;;;;3.75;2.38;;;5.00;99.90;;;;;;5047912;28;20379;-82
2024/02/21 04:05:57;;;;;;;4.28;2.83;;;5.20;99.90;;;;;;5047961;28;20871;-82
2024/02/21 04:08:25;;;;;;;5.90;2.78;;;4.90;99.90;;;;;;5047119;28;20394;-81
2024/02/21 04:10:51;;;;;;;7.30;2.90;;;5.10;99.90;;;;;;5044817;28;20384;-81
2024/02/21 04:13:16;;;;;;;5.10;2.87;;;5.30;99.90;;;;;;5029019;28;20424;-82
2024/02/21 04:15:42;;;;;;;5.93;2.87;;;5.00;99.90;;;;;;5029135;28;20470;-81
2024/02/21 04:18:08;;;;;;;5.37;2.40;;;5.20;99.90;;;;;;5047862;28;20406;-84
2024/02/21 04:20:34;;;;;;;4.17;2.53;;;5.10;99.90;;;;;;5050874;28;20462;-80
2024/02/21 04:23:00;;;;;;;4.70;2.67;;;5.20;99.90;;;;;;5053734;28;20389;-81
2024/02/21 04:25:26;;;;;;;3.10;2.65;;;5.20;99.90;;;;;;5031591;28;20449;-80
2024/02/21 04:27:51;;;;;;;7.10;3.38;;;5.00;99.90;;;;;;5049463;28;20375;-82
2024/02/21 04:30:17;;;;;;;4.73;2.90;;;5.00;99.90;;;;;;5047609;28;20398;-82
2024/02/21 04:32:43;;;;;;;5.33;2.53;;;5.00;99.90;;;;;;5038973;28;20404;-81
2024/02/21 04:35:08;;;;;;;4.73;2.50;;;4.90;99.90;;;;;;5029357;28;20414;-81
2024/02/21 04:37:34;;;;;;;4.93;2.50;;;5.00;99.90;;;;;;5046736;28;20406;-82
2024/02/21 04:40:00;;;;;;;6.50;2.77;;;4.90;99.90;;;;;;5045750;28;20389;-83
2024/02/21 04:42:25;;;;;;;3.60;2.70;;;4.70;99.90;;;;;;5017189;28;20851;-80
2024/02/21 04:44:51;;;;;;;6.83;2.80;;;4.80;99.90;;;;;;5055784;28;20396;-80
2024/02/21 04:47:17;;;;;;;3.72;2.53;;;4.60;99.90;;;;;;5052808;28;20387;-81
2024/02/21 04:49:43;;;;;;;5.53;2.80;;;4.80;99.90;;;;;;5059232;28;20395;-80
2024/02/21 04:52:08;;;;;;;2.97;2.50;;;4.80;99.90;;;;;;5059234;28;20390;-80
2024/02/21 04:54:35;;;;;;;3.87;2.50;;;4.30;99.90;;;;;;5058892;28;20439;-80
2024/02/21 04:57:01;;;;;;;5.00;2.20;;;4.70;99.90;;;;;;5042707;28;20391;-80
2024/02/21 04:59:26;;;;;;;4.63;2.60;;;4.40;99.90;;;;;;5058224;28;20402;-80
2024/02/21 05:01:52;;;;;;;6.10;2.90;;;4.60;99.90;;;;;;5058538;28;20430;-80
2024/02/21 05:04:17;;;;;;;6.27;3.10;;;4.30;99.90;;;;;;5039847;28;20405;-82
2024/02/21 05:06:43;;;;;;;5.90;2.77;;;4.60;99.90;;;;;;5057412;28;20395;-80
2024/02/21 05:09:09;;;;;;;4.47;2.70;;;4.60;99.90;;;;;;5034283;28;20610;-82
2024/02/21 05:11:38;;;;;;;4.20;3.00;;;4.30;99.90;;;;;;5045445;28;20402;-82
2024/02/21 05:14:04;;;;;;;4.28;2.78;;;4.60;99.90;;;;;;5030298;28;20410;-82
2024/02/21 05:16:30;;;;;;;6.22;3.15;;;4.60;99.90;;;;;;5047611;28;20413;-82
2024/02/21 05:18:57;;;;;;;6.43;2.67;;;4.60;99.90;;;;;;5028561;28;20410;-82
2024/02/21 05:21:28;;;;;;;4.72;2.72;;;4.20;99.90;;;;;;5046404;28;20379;-83
2024/02/21 05:23:53;;;;;;;4.75;2.72;;;4.60;99.90;;;;;;5045214;28;20390;-81
2024/02/21 05:26:27;;;;;;;4.10;2.67;;;4.60;99.90;;;;;;5023036;28;20391;-82
2024/02/21 05:28:53;;;;;;;3.65;2.63;;;4.60;99.90;;;;;;5049960;28;20417;-82
2024/02/21 05:31:19;;;;;;;6.53;2.57;;;4.70;99.90;;;;;;5050397;28;20395;-81
2024/02/21 05:33:45;;;;;;;3.05;1.92;;;4.70;99.90;;;;;;5071349;22;20433;-82
2024/02/21 05:36:11;;;;;;;4.32;2.60;;;4.80;99.90;;;;;;5052917;28;20477;-81
2024/02/21 05:38:37;;;;;;;3.10;2.10;;;4.20;99.90;;;;;;5053413;28;20396;-81
2024/02/21 05:41:03;;;;;;;3.80;2.80;;;4.60;99.90;;;;;;5053801;28;20373;-82
2024/02/21 05:43:29;;;;;;;3.00;2.60;;;4.50;99.90;;;;;;5043666;28;20383;-82
2024/02/21 05:45:54;;;;;;;5.27;2.87;;;4.60;99.90;;;;;;5033794;28;20394;-82
2024/02/21 05:48:21;;;;;;;8.27;3.13;;;4.40;99.90;;;;;;5033196;28;20450;-82
2024/02/21 05:50:47;;;;;;;3.67;2.60;;;4.50;99.90;;;;;;5015053;28;20383;-81
2024/02/21 05:53:12;;;;;;;5.30;2.95;;;4.60;99.90;;;;;;5032906;28;20476;-81
2024/02/21 05:55:38;;;;;;;5.73;2.60;;;4.60;99.90;;;;;;5040266;28;20399;-83
2024/02/21 05:58:05;;;;;;;5.35;3.05;;;4.70;99.90;;;;;;5051871;28;20391;-82
2024/02/21 06:00:32;;;;;;;3.20;2.63;;;4.40;99.90;;;;;;5036873;28;20390;-81
2024/02/21 06:02:57;;;;;;;6.18;2.47;;;4.40;99.90;;;;;;5032158;28;20386;-83
2024/02/21 06:05:23;;;;;;;7.28;3.25;;;4.50;99.90;;;;;;5036182;28;20410;-82
2024/02/21 06:07:48;;;;;;;5.23;3.03;;;4.50;99.90;;;;;;5018157;28;20382;-82
2024/02/21 06:10:14;;;;;;;4.10;2.90;;;4.30;99.90;;;;;;5018520;28;20388;-82
2024/02/21 06:12:39;;;;;;;4.00;2.40;;;4.40;99.90;;;;;;5022573;28;20391;-82
2024/02/21 06:15:05;;;;;;;6.73;3.00;;;4.20;99.90;;;;;;5039047;28;20473;-82
2024/02/21 06:17:31;;;;;;;5.18;2.90;;;4.30;99.90;;;;;;5007572;28;20759;-83
2024/02/21 06:19:57;;;;;;;5.03;2.65;;;4.30;99.90;;;;;;5019392;28;20392;-82
2024/02/21 06:22:23;;;;;;;3.65;2.10;;;4.20;99.90;;;;;;5038054;28;20409;-83
2024/02/21 06:24:48;;;;;;;3.60;2.40;;;4.20;99.90;;;;;;5053126;28;20403;-81
2024/02/21 06:27:16;;;;;;;3.10;2.67;;;4.30;99.90;;;;;;5015461;28;20454;-82
2024/02/21 06:29:42;;;;;;;4.50;2.70;;;4.30;99.90;;;;;;5032748;28;20379;-82
2024/02/21 06:32:07;;;;;;;3.30;2.80;;;4.20;99.90;;;;;;5008329;28;20725;-83
2024/02/21 06:34:33;;;;;;;5.50;3.03;;;4.10;99.90;;;;;;5033577;28;20411;-82
2024/02/21 06:36:58;;;;;;;6.97;3.17;;;4.10;99.90;;;;;;5017681;28;20392;-82
2024/02/21 06:39:24;;;;;;;5.30;3.35;;;4.10;99.90;;;;;;5031455;28;20399;-82
2024/02/21 06:41:53;;;;;;;5.53;3.20;;;4.10;99.90;;;;;;5031741;28;20426;-82
2024/02/21 06:44:19;;;;;;;5.40;2.70;;;3.90;99.90;;;;;;5023205;28;20405;-82
2024/02/21 06:46:45;;;;;;;4.18;2.60;;;4.00;99.90;;;;;;5013529;28;20391;-82
2024/02/21 06:49:15;;;;;;;3.30;2.40;;;4.10;99.90;;;;;;5020979;28;20469;-82
2024/02/21 06:51:42;;;;;;;3.40;2.60;;;4.20;99.90;;;;;;5010165;28;20544;-82
2024/02/21 06:54:09;;;;;;;3.28;2.63;;;3.30;99.90;;;;;;5024188;28;20426;-82
2024/02/21 06:56:35;;;;;;;3.50;2.50;;;4.00;99.90;;;;;;5016276;28;20921;-82
2024/02/21 06:59:01;;;;;;;2.58;2.10;;;4.30;99.90;;;;;;5025103;28;20477;-82
2024/02/21 07:01:27;;;;;;;5.85;3.05;;;4.30;99.90;;;;;;5031326;28;20755;-82
2024/02/21 07:03:52;;;;;;;4.90;2.40;;;4.30;99.90;;;;;;5031261;28;20387;-81
2024/02/21 07:06:18;;;;;;;4.97;2.60;;;4.20;99.90;;;;;;5013394;28;21163;-82
2024/02/21 07:08:43;;;;;;;7.30;3.00;;;4.30;99.90;;;;;;5032070;28;20395;-82
2024/02/21 07:11:09;;;;;;;5.23;2.70;;;4.30;99.90;;;;;;5013577;28;20741;-82
2024/02/21 07:13:34;;;;;;;4.60;2.50;;;4.50;99.90;;;;;;5035875;28;20407;-82
2024/02/21 07:16:00;;;;;;;5.60;2.80;;;4.60;99.90;;;;;;5041831;28;20395;-81
2024/02/21 07:18:25;;;;;;;3.67;2.30;;;4.80;99.90;;;;;;5039060;28;20478;-82
2024/02/21 07:20:52;;;;;;;5.03;2.50;;;4.80;99.90;;;;;;5038332;28;20387;-82
2024/02/21 07:23:18;;;;;;;5.35;2.83;;;4.70;99.90;;;;;;5029337;28;20398;-82
2024/02/21 07:25:43;;;;;;;5.25;2.85;;;4.80;99.90;;;;;;5047840;28;20457;-82
2024/02/21 07:28:09;;;;;;;4.77;2.80;;;4.90;99.90;;;;;;5044449;28;20390;-83
2024/02/21 07:30:35;;;;;;;3.08;2.33;;;5.00;99.90;;;;;;5019415;28;20399;-83
2024/02/21 07:33:00;;;;;;;6.28;3.00;;;5.20;99.90;;;;;;5037035;28;20423;-83
2024/02/21 07:35:26;;;;;;;3.60;2.65;;;5.00;99.90;;;;;;5019264;28;20395;-83
2024/02/21 07:37:51;;;;;;;4.90;2.97;;;5.40;99.90;;;;;;5019534;28;20445;-83
2024/02/21 07:40:17;;;;;;;5.95;3.67;;;5.40;99.90;;;;;;5037435;28;20919;-83
2024/02/21 07:42:43;;;;;;;4.38;2.70;;;5.10;99.90;;;;;;5019862;28;20383;-83
2024/02/21 07:45:10;;;;;;;5.78;3.20;;;5.50;99.90;;;;;;5035314;28;20394;-83
2024/02/21 07:47:36;;;;;;;5.25;3.00;;;5.50;99.90;;;;;;5035277;28;20431;-83
2024/02/21 07:50:03;;;;;;;4.28;3.30;;;5.60;99.90;;;;;;5037261;28;20379;-83
2024/02/21 07:52:28;;;;;;;4.00;2.90;;;5.50;99.90;;;;;;5021104;28;20387;-83
2024/02/21 07:54:54;;;;;;;6.47;3.80;;;5.40;99.90;;;;;;5020379;28;20933;-83
2024/02/21 07:57:20;;;;;;;4.57;3.10;;;5.00;99.90;;;;;;5038255;28;20391;-83
2024/02/21 07:59:47;;;;;;;4.03;3.20;;;5.50;99.90;;;;;;5020578;28;20383;-83
2024/02/21 08:02:13;;;;;;;4.85;3.50;;;5.70;99.90;;;;;;5037357;28;20399;-83
2024/02/21 08:04:39;;;;;;;5.95;3.20;;;5.70;99.90;;;;;;5034179;28;20409;-83
2024/02/21 08:07:05;;;;;;;6.07;2.90;;;5.70;99.90;;;;;;5038103;28;20846;-82
2024/02/21 08:09:30;;;;;;;4.83;2.50;;;5.50;99.90;;;;;;5019237;28;20394;-83
2024/02/21 08:11:56;;;;;;;5.07;2.83;;;5.80;99.90;;;;;;5036275;28;20383;-83
2024/02/21 08:14:22;;;;;;;3.60;2.67;;;5.90;99.90;;;;;;5018383;28;20406;-83
2024/02/21 08:16:48;;;;;;;5.45;3.13;;;5.60;99.90;;;;;;5036784;28;20388;-83
2024/02/21 08:19:14;;;;;;;7.43;2.70;;;6.00;99.90;;;;;;5024027;28;20398;-83
2024/02/21 08:21:39;;;;;;;2.80;2.33;;;6.10;99.90;;;;;;5016735;28;20381;-83
2024/02/21 08:24:05;;;;;;;3.38;2.38;;;6.10;99.90;;;;;;5016323;28;20940;-83
2024/02/21 08:26:31;;;;;;;4.60;2.45;;;6.20;99.90;;;;;;5013705;28;20393;-81
2024/02/21 08:29:00;;;;;;;5.93;2.63;;;6.40;99.90;;;;;;5019099;28;20391;-81
2024/02/21 08:31:32;;;;;;;4.13;2.63;;;6.40;99.90;;;;;;5033770;28;20391;-81
2024/02/21 08:34:02;;;;;;;5.75;2.40;;;6.40;99.90;;;;;;5035356;28;20425;-82
2024/02/21 08:36:32;;;;;;;4.10;2.20;;;6.50;99.90;;;;;;5036788;28;20379;-81
2024/02/21 08:38:57;;;;;;;3.53;2.53;;;6.30;99.90;;;;;;5036627;28;20939;-81
2024/02/21 08:41:24;;;;;;;3.00;2.40;;;6.50;99.90;;;;;;5018172;28;20423;-81
2024/02/21 08:43:53;;;;;;;5.95;2.30;;;7.00;99.90;;;;;;5018470;28;20399;-81
2024/02/21 08:46:24;;;;;;;3.97;2.20;;;6.90;99.90;;;;;;5012554;28;20401;-81
2024/02/21 08:48:51;;;;;;;4.53;2.72;;;7.00;99.90;;;;;;4997554;28;20792;-81
2024/02/21 08:51:16;;;;;;;2.83;1.93;;;7.10;99.90;;;;;;4996712;28;20539;-82
2024/02/21 08:53:42;;;;;;;3.17;1.92;;;7.40;99.90;;;;;;5014679;28;20444;-81
2024/02/21 08:56:07;;;;;;;4.23;2.20;;;7.30;99.90;;;;;;4997051;28;20442;-81
2024/02/21 08:58:35;;;;;;;4.53;2.10;;;7.10;99.90;;;;;;5014805;28;20380;-81
2024/02/21 09:01:00;;;;;;;3.90;2.40;;;7.40;99.90;;;;;;5015264;28;20908;-82
2024/02/21 09:03:26;;;;;;;4.43;2.20;;;7.60;99.90;;;;;;5018443;28;20455;-82
2024/02/21 09:05:51;;;;;;;4.37;2.33;;;7.50;99.90;;;;;;4999158;28;20393;-82
2024/02/21 09:08:18;;;;;;;3.90;2.30;;;7.30;99.90;;;;;;4996025;28;20383;-82
2024/02/21 09:10:44;;;;;;;3.65;2.50;;;7.60;99.90;;;;;;5031336;28;20416;-82
2024/02/21 09:13:09;;;;;;;2.97;2.10;;;7.80;99.90;;;;;;5034294;28;20379;-82
2024/02/21 09:15:35;;;;;;;3.03;2.30;;;7.60;99.90;;;;;;5017625;28;20883;-82
2024/02/21 09:18:00;;;;;;;5.40;2.80;;;8.10;99.90;;;;;;5024595;28;20391;-81
2024/02/21 09:20:26;;;;;;;3.30;2.10;;;7.90;99.90;;;;;;5044055;28;20386;-81
2024/02/21 09:22:52;;;;;;;3.28;2.35;;;8.20;99.90;;;;;;5044103;28;20404;-82
2024/02/21 09:25:18;;;;;;;3.92;2.10;;;8.10;99.90;;;;;;5042571;28;20395;-82
2024/02/21 09:27:44;;;;;;;4.05;2.33;;;8.30;99.90;;;;;;5033818;28;20391;-82
2024/02/21 09:30:10;;;;;;;6.18;2.60;;;8.40;99.90;;;;;;5016059;28;20453;-82
2024/02/21 09:32:36;;;;;;;3.13;2.67;;;8.70;99.90;;;;;;5022968;28;20391;-81
2024/02/21 09:35:02;;;;;;;3.83;2.40;;;8.70;99.90;;;;;;5026531;28;20446;-81
2024/02/21 09:37:27;;;;;;;4.57;2.60;;;9.00;99.90;;;;;;5040570;28;20398;-82
2024/02/21 09:39:53;;;;;;;5.87;3.13;;;8.90;99.90;;;;;;5017547;28;20391;-82
2024/02/21 09:42:21;;;;;;;4.25;2.55;;;9.20;99.90;;;;;;5034984;28;20438;-82
2024/02/21 09:44:48;;;;;;;3.80;2.30;;;9.40;99.90;;;;;;5034703;28;20386;-82
2024/02/21 09:47:22;;;;;;;4.88;2.67;;;9.50;99.90;;;;;;5017092;28;20395;-82
2024/02/21 09:49:48;;;;;;;4.00;2.40;;;9.00;99.90;;;;;;5017300;28;20926;-82
2024/02/21 09:52:15;;;;;;;4.45;2.50;;;9.50;99.90;;;;;;5034811;28;20474;-82
2024/02/21 09:54:44;;;;;;;3.63;2.10;;;9.60;99.90;;;;;;5016706;28;20461;-82
2024/02/21 09:57:11;;;;;;;3.45;2.10;;;9.50;99.90;;;;;;5033597;28;20383;-81
2024/02/21 09:59:37;;;;;;;4.10;2.20;;;9.90;99.90;;;;;;5033894;28;20458;-82
2024/02/21 10:02:04;;;;;;;3.42;2.70;;;9.90;99.90;;;;;;5035038;28;20485;-82
2024/02/21 10:04:30;;;;;;;4.55;2.10;;;10.20;99.90;;;;;;5020067;28;20395;-82
2024/02/21 10:06:55;;;;;;;4.13;2.00;;;9.90;99.90;;;;;;5041834;28;20962;-85
2024/02/21 10:09:22;;;;;;;4.00;1.90;;;9.60;99.90;;;;;;5034570;28;20413;-83
2024/02/21 10:11:49;;;;;;;3.70;1.70;;;10.20;99.90;;;;;;5032833;28;20398;-83
2024/02/21 10:14:15;;;;;;;5.03;1.90;;;10.40;99.90;;;;;;5019860;28;20441;-83
2024/02/21 10:16:42;;;;;;;2.40;1.60;;;10.50;99.90;;;;;;5015191;28;20395;-82
2024/02/21 10:19:19;;;;;;;4.63;1.73;;;10.60;99.90;;;;;;5013748;28;20401;-82
2024/02/21 10:21:57;;;;;;;2.72;1.98;;;10.50;99.90;;;;;;5013823;28;20379;-82
2024/02/21 10:24:32;;;;;;;3.30;1.63;;;10.60;99.90;;;;;;5013773;28;20753;-82
2024/02/21 10:27:08;;;;;;;2.55;1.80;;;10.70;99.90;;;;;;5018178;28;20494;-82
2024/02/21 10:29:35;;;;;;;3.10;1.50;;;10.80;99.90;;;;;;5018608;28;20478;-82
2024/02/21 10:32:11;;;;;;;3.05;1.70;;;10.80;99.90;;;;;;5033595;28;20878;-83
2024/02/21 10:34:39;;;;;;;4.03;1.70;;;11.00;99.90;;;;;;5037520;28;20929;-83
2024/02/21 10:37:09;;;;;;;1.42;1.30;;;11.30;99.90;;;;;;5043259;28;20379;-82
2024/02/21 10:39:38;;;;;;;3.20;1.55;;;;;;;;;;5046934;28;20383;-82
2024/02/21 10:42:04;;;;;;;2.88;1.63;;;11.40;99.90;;;;;;5030619;28;20376;-83
2024/02/21 10:44:36;;;;;;;2.42;1.50;;;10.80;99.90;;;;;;5035837;28;20906;-82
2024/02/21 10:47:07;;;;;;;2.90;1.40;;;11.70;99.90;;;;;;5034598;28;20903;-82
2024/02/21 10:49:34;;;;;;;1.70;1.40;;;14.00;99.90;;;;;;5033192;28;20925;-83
2024/02/21 10:52:13;;;;;;;2.92;1.40;;;11.90;99.90;;;;;;5000038;28;20398;-82
2024/02/21 10:54:50;;;;;;;5.20;1.50;;;11.40;99.90;;;;;;5041334;28;20403;-82
2024/02/21 10:57:17;;;;;;;2.03;1.10;;;12.10;99.90;;;;;;5049822;28;20383;-82
2024/02/21 10:59:45;;;;;;;2.50;1.10;;;11.80;99.90;;;;;;5038186;28;20399;-83
2024/02/21 11:02:11;;;;;;;4.00;1.20;;;12.20;99.90;;;;;;5039241;28;20406;-83
2024/02/21 11:04:37;;;;;;;2.38;1.40;;;12.20;99.90;;;;;;5056262;28;20407;-83
2024/02/21 11:07:04;;;;;;;2.30;1.17;;;11.70;99.90;;;;;;5044541;28;20397;-83
2024/02/21 11:09:34;;;;;;;2.70;1.20;;;12.60;99.90;;;;;;5024804;28;20407;-83
2024/02/21 11:12:04;;;;;;;4.05;1.33;;;11.80;99.90;;;;;;5019372;28;20395;-83
2024/02/21 11:14:35;;;;;;;2.55;1.17;;;13.10;99.90;;;;;;5034234;28;20465;-83
2024/02/21 11:17:03;;;;;;;2.40;1.10;;;15.10;99.90;;;;;;5020810;28;20391;-84
2024/02/21 11:19:31;;;;;;;1.30;1.10;;;13.40;99.90;;;;;;5024531;28;20391;-83
2024/02/21 11:21:57;;;;;;;2.65;0.98;;;;;;;;;;5016547;28;20399;-83
2024/02/21 11:24:33;;;;;;;2.10;0.90;;;13.30;99.90;;;;;;5044307;28;20842;-83
2024/02/21 11:27:15;;;;;;;2.40;1.00;;;13.40;99.90;;;;;;5036201;28;20759;-83
2024/02/21 11:29:45;;;;;;;2.92;1.00;;;;;;;;;;5053362;28;20429;-82
2024/02/21 11:32:14;;;;;;;3.17;1.20;;;13.50;99.90;;;;;;5056864;28;20387;-82
2024/02/21 11:34:41;;;;;;;2.78;1.10;;;13.40;99.90;;;;;;5055013;28;20490;-83
2024/02/21 11:37:46;;;;;;;3.10;1.10;;;13.60;99.90;;;;;;5044611;28;20402;-82
2024/02/21 11:40:12;;;;;;;2.83;1.00;;;14.30;99.90;;;;;;4991294;28;20479;-82
2024/02/21 11:42:38;;;;;;;3.67;1.40;;;;;;;;;;5021541;28;20385;-82
2024/02/21 11:45:21;;;;;;;2.78;1.25;;;14.10;99.90;;;;;;5012644;28;20396;-83
2024/02/21 11:47:49;;;;;;;1.88;1.17;;;14.00;99.90;;;;;;5023155;28;20853;-83
2024/02/21 11:50:15;;;;;;;3.55;1.17;;;14.20;99.90;;;;;;5003124;28;20400;-83
2024/02/21 11:52:40;;;;;;;2.72;1.60;;;14.40;99.90;;;;;;5012813;28;20399;-82
2024/02/21 11:55:08;;;;;;;2.10;1.10;;;13.90;99.90;;;;;;5018156;28;20410;-82
2024/02/21 11:57:35;;;;;;;1.50;1.27;;;13.70;99.90;;;;;;5032775;28;20410;-83
2024/02/21 12:00:17;;;;;;;2.03;1.27;;;13.50;99.90;;;;;;5033802;28;20387;-84
2024/02/21 12:02:45;;;;;;;2.30;1.60;;;13.50;99.90;;;;;;5030722;28;20407;-83
2024/02/21 12:05:10;;;;;;;3.15;1.65;;;13.50;99.90;;;;;;5016790;28;20449;-82
2024/02/21 12:07:40;;;;;;;2.30;1.30;;;13.00;99.90;;;;;;4997956;28;20491;-82
2024/02/21 12:10:10;;;;;;;2.42;2.08;;;13.80;99.90;;;;;;5015755;28;20442;-82
2024/02/21 12:12:39;;;;;;;2.03;1.50;;;14.30;99.90;;;;;;5015740;28;20391;-82
2024/02/21 12:15:05;;;;;;;2.22;1.60;;;14.30;99.90;;;;;;4998889;28;20405;-82
2024/02/21 12:17:34;;;;;;;2.50;1.60;;;14.10;99.90;;;;;;5026971;28;20413;-82
2024/02/21 12:19:59;;;;;;;2.17;1.30;;;14.30;99.90;;;;;;5064027;23;20429;-83
2024/02/21 12:22:26;;;;;;;3.27;1.80;;;14.10;99.90;;;;;;5069945;28;20408;-82
2024/02/21 12:24:51;;;;;;;1.30;0.80;;;14.50;99.90;;;;;;5072177;28;20378;-81
2024/02/21 12:27:17;;;;;;;3.60;1.10;;;13.50;99.90;;;;;;5075999;28;20373;-81
2024/02/21 12:29:42;;;;;;;2.53;0.80;;;14.50;99.90;;;;;;5073668;28;20382;-81
2024/02/21 12:32:08;;;;;;;0.90;0.65;;;14.30;99.90;;;;;;5071965;28;20404;-81
2024/02/21 12:34:33;;;;;;;2.10;0.80;;;13.70;99.90;;;;;;5069818;28;20469;-80
2024/02/21 12:36:59;;;;;;;1.47;0.90;;;14.40;99.90;;;;;;5070603;28;20402;-81
2024/02/21 12:39:27;;;;;;;1.33;0.73;;;14.10;99.90;;;;;;5068944;28;20404;-81
2024/02/21 12:41:56;;;;;;;1.10;0.70;;;13.20;99.90;;;;;;5067596;28;20402;-81
2024/02/21 12:44:21;;;;;;;1.40;0.65;;;14.00;99.90;;;;;;5068210;28;20498;-82
2024/02/21 12:46:51;;;;;;;1.17;0.73;;;14.40;99.90;;;;;;5068731;28;20408;-82
2024/02/21 12:49:17;;;;;;;2.70;0.70;;;14.30;99.90;;;;;;5070353;28;20808;-82
2024/02/21 12:51:46;;;;;;;1.17;0.57;;;14.20;99.90;;;;;;5070466;28;20473;-82